createdAt,value
2018-04-29T00:01:29.783Z,99003.84
2018-04-29T00:07:34.211Z,98995.63
2018-04-29T00:13:38.695Z,98986.02
2018-04-29T00:19:43.099Z,98978.63
2018-04-29T00:25:47.546Z,98979.78
2018-04-29T00:31:52.838Z,98964.30
2018-04-29T00:37:57.219Z,98958.77
2018-04-29T00:44:01.589Z,98950.09
2018-04-29T00:50:06.782Z,98946.67
2018-04-29T00:56:11.178Z,98941.89
2018-04-29T01:02:15.569Z,98951.38
2018-04-29T01:08:20.049Z,98933.18
2018-04-29T01:14:24.508Z,98939.42
2018-04-29T01:20:28.864Z,98949.19
2018-04-29T01:26:33.261Z,98955.82
2018-04-29T01:32:37.624Z,98959.22
2018-04-29T01:38:42.070Z,98951.85
2018-04-29T01:44:47.185Z,98954.41
2018-04-29T01:50:51.865Z,98958.28
2018-04-29T01:56:56.213Z,98959.73
2018-04-29T02:03:00.556Z,98970.73
2018-04-29T02:09:04.941Z,98967.92
2018-04-29T02:15:09.304Z,98962.09
2018-04-29T02:21:13.731Z,98959.94
2018-04-29T02:27:18.858Z,98956.48
2018-04-29T02:33:23.429Z,98950.81
2018-04-29T02:39:27.803Z,98945.19
2018-04-29T02:45:32.154Z,98941.27
2018-04-29T02:51:37.307Z,98939.25
2018-04-29T02:57:41.664Z,98940.75
2018-04-29T03:03:46.028Z,98941.81
2018-04-29T03:09:50.393Z,98937.00
2018-04-29T03:15:54.796Z,98940.99
2018-04-29T03:21:59.218Z,98935.95
2018-04-29T03:28:04.336Z,98930.46
2018-04-29T03:34:08.685Z,98917.13
2018-04-29T03:40:13.818Z,98918.52
2018-04-29T03:46:18.270Z,98904.30
2018-04-29T03:52:22.703Z,98906.90
2018-04-29T03:58:45.053Z,98889.09
2018-04-29T04:04:49.399Z,98887.59
2018-04-29T04:10:54.832Z,98888.23
2018-04-29T04:16:59.213Z,98897.69
2018-04-29T04:23:03.610Z,98902.23
2018-04-29T04:29:07.943Z,98900.49
2018-04-29T04:35:12.295Z,98898.00
2018-04-29T04:41:17.409Z,98891.84
2018-04-29T04:47:21.867Z,98898.11
2018-04-29T04:53:27.004Z,98907.58
2018-04-29T04:59:31.353Z,98910.27
2018-04-29T05:05:35.726Z,98912.81
2018-04-29T05:11:40.076Z,98921.16
2018-04-29T05:17:44.446Z,98910.84
2018-04-29T05:23:49.564Z,98915.58
2018-04-29T05:29:53.951Z,98908.36
2018-04-29T05:35:58.405Z,98911.66
2018-04-29T05:42:03.927Z,98918.80
2018-04-29T05:48:08.278Z,98922.69
2018-04-29T05:54:12.638Z,98918.05
2018-04-29T06:00:17.776Z,98905.46
2018-04-29T06:06:22.201Z,98895.52
2018-04-29T06:12:28.050Z,98885.87
2018-04-29T06:18:33.257Z,98878.44
2018-04-29T06:24:37.607Z,98869.50
2018-04-29T06:30:41.973Z,98874.26
2018-04-29T06:36:47.182Z,98853.43
2018-04-29T06:42:51.568Z,98854.92
2018-04-29T06:48:55.972Z,98853.39
2018-04-29T06:55:00.350Z,98862.05
2018-04-29T07:01:04.789Z,98854.93
2018-04-29T07:07:09.156Z,98849.38
2018-04-29T07:13:13.535Z,98839.70
2018-04-29T07:19:17.883Z,98830.89
2018-04-29T07:25:23.004Z,98834.45
2018-04-29T07:31:27.390Z,98849.41
2018-04-29T07:37:31.751Z,98849.91
2018-04-29T07:43:36.213Z,98847.06
2018-04-29T07:49:41.332Z,98848.46
2018-04-29T07:55:45.678Z,98847.22
2018-04-29T08:01:50.808Z,98856.20
2018-04-29T08:07:55.195Z,98849.02
2018-04-29T08:14:00.340Z,98828.59
2018-04-29T08:20:05.455Z,98842.79
2018-04-29T08:26:09.837Z,98851.64
2018-04-29T08:32:14.199Z,98844.42
2018-04-29T08:38:18.562Z,98833.34
2018-04-29T08:44:23.077Z,98831.11
2018-04-29T08:50:27.432Z,98826.31
2018-04-29T08:56:31.908Z,98825.27
2018-04-29T09:02:36.322Z,98815.24
2018-04-29T09:08:40.712Z,98824.55
2018-04-29T09:14:45.056Z,98814.13
2018-04-29T09:20:49.596Z,98801.80
2018-04-29T09:26:54.082Z,98807.78
2018-04-29T09:32:58.589Z,98805.31
2018-04-29T09:39:02.983Z,98817.98
2018-04-29T09:45:07.338Z,98810.02
2018-04-29T09:51:11.690Z,98808.97
2018-04-29T09:57:16.050Z,98809.12
2018-04-29T10:03:20.445Z,98812.27
2018-04-29T10:09:24.897Z,98815.77
2018-04-29T10:15:29.241Z,98817.64
2018-04-29T10:21:33.656Z,98819.90
2018-04-29T10:27:38.058Z,98816.55
2018-04-29T10:33:42.433Z,98816.22
2018-04-29T10:39:46.797Z,98819.97
2018-04-29T10:45:51.255Z,98801.41
2018-04-29T10:51:55.760Z,98798.05
2018-04-29T10:58:00.142Z,98802.31
2018-04-29T11:04:04.514Z,98785.11
2018-04-29T11:10:08.980Z,98764.91
2018-04-29T11:16:13.344Z,98745.67
2018-04-29T11:22:17.716Z,98736.80
2018-04-29T11:28:23.247Z,98762.52
2018-04-29T11:34:27.608Z,98768.38
2018-04-29T11:40:31.991Z,98771.44
2018-04-29T11:46:36.334Z,98752.84
2018-04-29T11:52:41.461Z,98756.25
2018-04-29T11:58:45.919Z,98754.86
2018-04-29T12:04:50.875Z,98737.00
2018-04-29T12:10:55.514Z,98663.59
2018-04-29T12:17:00.083Z,98652.72
2018-04-29T12:23:04.464Z,98644.77
2018-04-29T12:29:08.857Z,98663.25
2018-04-29T12:35:13.261Z,98673.38
2018-04-29T12:41:18.403Z,98647.22
2018-04-29T12:47:23.483Z,98645.06
2018-04-29T12:53:28.047Z,98639.53
2018-04-29T12:59:32.435Z,98621.72
2018-04-29T13:05:36.919Z,98600.47
2018-04-29T13:11:41.388Z,98595.87
2018-04-29T13:17:45.963Z,98585.16
2018-04-29T13:23:50.571Z,98572.36
2018-04-29T13:29:55.003Z,98557.23
2018-04-29T13:35:59.366Z,98543.84
2018-04-29T13:42:04.598Z,98544.26
2018-04-29T13:48:09.190Z,98528.02
2018-04-29T13:54:15.170Z,98505.53
2018-04-29T14:00:19.582Z,98500.23
2018-04-29T14:06:24.296Z,98486.28
2018-04-29T14:12:29.438Z,98476.51
2018-04-29T14:18:33.780Z,98462.63
2018-04-29T14:24:38.138Z,98455.31
2018-04-29T14:30:42.545Z,98448.05
2018-04-29T14:36:47.011Z,98444.52
2018-04-29T14:42:51.714Z,98438.77
2018-04-29T14:48:56.078Z,98435.06
2018-04-29T14:55:00.465Z,98433.19
2018-04-29T15:01:04.824Z,98424.03
2018-04-29T15:07:09.220Z,98415.55
2018-04-29T15:13:13.677Z,98413.23
2018-04-29T15:19:18.072Z,98407.87
2018-04-29T15:25:22.445Z,98413.70
2018-04-29T15:31:26.906Z,98418.63
2018-04-29T15:37:31.285Z,98409.80
2018-04-29T15:43:35.770Z,98407.40
2018-04-29T15:49:40.188Z,98414.47
2018-04-29T15:55:46.044Z,98413.72
2018-04-29T16:01:50.671Z,98409.47
2018-04-29T16:07:55.032Z,98399.21
2018-04-29T16:13:59.402Z,98389.91
2018-04-29T16:20:03.746Z,98378.09
2018-04-29T16:26:08.133Z,98367.79
2018-04-29T16:32:12.597Z,98360.02
2018-04-29T16:38:16.979Z,98339.45
2018-04-29T16:44:23.174Z,98331.63
2018-04-29T16:50:28.308Z,98318.24
2018-04-29T16:56:32.700Z,98310.09
2018-04-29T17:02:37.225Z,98305.00
2018-04-29T17:08:42.356Z,98301.64
2018-04-29T17:14:46.730Z,98300.02
2018-04-29T17:20:51.307Z,98292.83
2018-04-29T17:26:55.689Z,98287.02
2018-04-29T17:33:00.051Z,98285.38
2018-04-29T17:39:04.413Z,98278.27
2018-04-29T17:45:08.880Z,98272.33
2018-04-29T17:51:13.242Z,98265.13
2018-04-29T17:57:18.446Z,98259.66
2018-04-29T18:03:22.873Z,98247.80
2018-04-29T18:09:27.302Z,98243.26
2018-04-29T18:15:31.682Z,98253.29
2018-04-29T18:21:36.050Z,98252.09
2018-04-29T18:27:40.539Z,98245.19
2018-04-29T18:33:44.778Z,98239.14
2018-04-29T18:39:51.131Z,98234.62
2018-04-29T18:45:55.523Z,98228.27
2018-04-29T18:51:59.880Z,98230.50
2018-04-29T18:58:04.319Z,98221.70
2018-04-29T19:04:08.675Z,98214.53
2018-04-29T19:10:13.075Z,98228.70
2018-04-29T19:16:18.241Z,98216.58
2018-04-29T19:22:22.715Z,98207.47
2018-04-29T19:28:27.069Z,98199.59
2018-04-29T19:34:31.429Z,98192.00
2018-04-29T19:40:35.788Z,98188.32
2018-04-29T19:46:40.159Z,98184.85
2018-04-29T19:52:45.284Z,98190.82
2018-04-29T19:58:49.659Z,98172.61
2018-04-29T20:04:54.022Z,98176.02
2018-04-29T20:10:58.583Z,98164.88
2018-04-29T20:17:03.206Z,98161.50
2018-04-29T20:23:07.591Z,98158.92
2018-04-29T20:29:12.017Z,98148.13
2018-04-29T20:35:16.391Z,98125.95
2018-04-29T20:41:20.822Z,98106.58
2018-04-29T20:47:25.269Z,98088.80
2018-04-29T20:53:29.659Z,98087.67
2018-04-29T20:59:34.052Z,98069.62
2018-04-29T21:05:38.478Z,98069.97
2018-04-29T21:11:42.839Z,98053.46
2018-04-29T21:17:47.998Z,98030.95
2018-04-29T21:23:52.842Z,98006.50
2018-04-29T21:29:57.199Z,97997.28
2018-04-29T21:36:01.594Z,97991.41
2018-04-29T21:42:05.991Z,97975.06
2018-04-29T21:48:10.389Z,97961.47
2018-04-29T21:54:14.807Z,97950.06
2018-04-29T22:00:19.233Z,97937.34
2018-04-29T22:06:23.692Z,97935.43
2018-04-29T22:12:28.053Z,97923.45
2018-04-29T22:18:32.543Z,97916.06
2018-04-29T22:24:36.992Z,97906.45
2018-04-29T22:30:41.364Z,97888.70
2018-04-29T22:42:56.273Z,97867.36
2018-04-29T22:49:00.648Z,97856.08
2018-04-29T22:55:05.031Z,97850.76
2018-04-29T23:01:09.398Z,97843.52
2018-04-29T23:07:13.771Z,97828.73
2018-04-29T23:13:18.242Z,97806.95
2018-04-29T23:19:22.652Z,97807.86
2018-04-29T23:25:27.029Z,97798.17
2018-04-29T23:31:31.386Z,97784.74
2018-04-29T23:37:35.857Z,97753.88
2018-04-29T23:43:40.216Z,97742.32
2018-04-29T23:49:44.581Z,97731.72
2018-04-29T23:55:49.035Z,97725.30
